KGGG/GGG METAR and TAF weather

Enter ICAO airport designator
Station Type Date Time Source
KGGG METAR 2021/05/14 13:53 UTC NOAA

KGGG 141353Z 12004KT 10SM CLR 17/09 A3028 RMK AO2 SLP252 T01720089


Station Type Date Time Source
KGGG Decoded METAR 2021/05/14 13:53 UTC NOAA

LONGVIEW GREGG COUNTY AIRPORT , TX, United States (KGGG) 32-23N 094-43W 107M
May 14, 2021 - 09:53 AM EDT / 2021.05.14 1353 UTC
Wind: from the ESE (120 degrees) at 5 MPH (4 KT):0
Visibility: 10 mile(s):0
Sky conditions: clear
Temperature: 63.0 F (17.2 C)
Dew Point: 48.0 F (8.9 C)
Relative Humidity: 58%
Pressure (altimeter): 30.28 in. Hg (1025 hPa)
ob: KGGG 141353Z 12004KT 10SM CLR 17/09 A3028 RMK AO2 SLP252 T01720089
cycle: 14

Station Type Date Time Source
KGGG TAF 2021/05/14 12:27 UTC NOAA

TAF KGGG 141125Z 1412/1512 09003KT P6SM SKC
FM141500 11007KT P6SM SKC
FM141800 12007KT P6SM FEW050 SCT250
FM150100 13003KT P6SM SKC

Example: see airport list